createdAt,value
2022-09-15T00:01:08.136Z,16.41
2022-09-15T00:03:51.880Z,16.30
2022-09-15T00:06:37.472Z,16.16
2022-09-15T00:09:12.403Z,16.00
2022-09-15T00:12:11.487Z,15.95
2022-09-15T00:14:52.875Z,15.95
2022-09-15T00:17:58.906Z,15.92
2022-09-15T00:20:29.220Z,15.91
2022-09-15T00:23:06.357Z,15.94
2022-09-15T00:25:51.961Z,15.98
2022-09-15T00:28:41.132Z,15.97
2022-09-15T00:34:19.969Z,16.07
2022-09-15T00:36:48.398Z,16.08
2022-09-15T00:39:38.231Z,15.98
2022-09-15T00:45:37.898Z,15.84
2022-09-15T00:48:20.944Z,15.80
2022-09-15T00:51:09.459Z,15.70
2022-09-15T00:54:00.862Z,15.72
2022-09-15T00:56:47.589Z,15.72
2022-09-15T00:59:18.782Z,15.77
2022-09-15T01:02:14.845Z,15.80
2022-09-15T01:04:58.209Z,15.81
2022-09-15T01:07:52.679Z,15.76
2022-09-15T01:10:31.048Z,15.71
2022-09-15T01:13:25.902Z,15.71
2022-09-15T01:16:49.869Z,15.72
2022-09-15T01:20:25.454Z,15.72
2022-09-15T01:23:31.365Z,15.73
2022-09-15T01:26:27.731Z,15.75
2022-09-15T01:29:15.735Z,15.76
2022-09-15T01:32:17.199Z,15.80
2022-09-15T01:35:33.706Z,15.86
2022-09-15T01:38:53.062Z,15.87
2022-09-15T01:42:52.529Z,15.89
2022-09-15T01:45:30.353Z,15.84
2022-09-15T01:48:12.558Z,15.80
2022-09-15T01:51:07.121Z,15.82
2022-09-15T01:53:58.958Z,15.83
2022-09-15T01:56:29.384Z,15.84
2022-09-15T01:58:56.182Z,15.87
2022-09-15T02:01:43.845Z,15.85
2022-09-15T02:04:19.727Z,15.79
2022-09-15T02:07:13.369Z,15.76
2022-09-15T02:10:04.761Z,15.76
2022-09-15T02:12:41.100Z,15.75
2022-09-15T02:15:12.550Z,15.74
2022-09-15T02:17:45.771Z,15.74
2022-09-15T02:20:17.899Z,15.74
2022-09-15T02:22:50.472Z,15.69
2022-09-15T02:25:24.584Z,15.67
2022-09-15T02:27:55.249Z,15.64
2022-09-15T02:30:22.907Z,15.65
2022-09-15T02:32:57.344Z,15.66
2022-09-15T02:35:27.254Z,15.60
2022-09-15T02:37:55.360Z,15.57
2022-09-15T02:40:23.304Z,15.61
2022-09-15T02:42:58.120Z,15.63
2022-09-15T02:45:25.841Z,15.70
2022-09-15T02:47:52.880Z,15.76
2022-09-15T02:50:20.586Z,15.76
2022-09-15T02:52:47.457Z,15.79
2022-09-15T02:55:14.169Z,15.82
2022-09-15T02:57:40.881Z,15.84
2022-09-15T03:00:14.566Z,15.82
2022-09-15T03:02:42.924Z,15.83
2022-09-15T03:05:10.593Z,15.80
2022-09-15T03:07:38.161Z,15.79
2022-09-15T03:10:06.253Z,15.81
2022-09-15T03:12:39.843Z,15.79
2022-09-15T03:15:09.551Z,15.75
2022-09-15T03:17:37.696Z,15.75
2022-09-15T03:20:07.472Z,15.76
2022-09-15T03:22:34.922Z,15.75
2022-09-15T03:25:02.186Z,15.72
2022-09-15T03:27:28.844Z,15.71
2022-09-15T03:29:55.732Z,15.73
2022-09-15T03:32:22.719Z,15.73
2022-09-15T03:34:49.469Z,15.69
2022-09-15T03:37:16.286Z,15.65
2022-09-15T03:39:43.064Z,15.66
2022-09-15T03:42:09.780Z,15.67
2022-09-15T03:44:36.531Z,15.69
2022-09-15T03:47:04.130Z,15.71
2022-09-15T03:49:31.022Z,15.68
2022-09-15T03:51:59.105Z,15.65
2022-09-15T03:54:27.010Z,15.66
2022-09-15T03:56:53.807Z,15.66
2022-09-15T03:59:21.687Z,15.68
2022-09-15T04:01:48.907Z,15.72
2022-09-15T04:04:15.666Z,15.77
2022-09-15T04:06:42.268Z,15.79
2022-09-15T04:09:09.094Z,15.82
2022-09-15T04:11:37.029Z,15.83
2022-09-15T04:14:03.846Z,15.83
2022-09-15T04:16:30.691Z,15.84
2022-09-15T04:18:58.049Z,15.85
2022-09-15T04:21:26.811Z,15.85
2022-09-15T04:23:54.514Z,15.84
2022-09-15T04:26:33.229Z,15.87
2022-09-15T04:29:04.302Z,15.87
2022-09-15T04:31:32.318Z,15.86
2022-09-15T04:33:59.528Z,15.87
2022-09-15T04:36:28.661Z,15.88
2022-09-15T04:38:56.661Z,15.88
2022-09-15T04:41:24.383Z,15.87
2022-09-15T04:43:51.540Z,15.84
2022-09-15T04:46:19.233Z,15.82
2022-09-15T04:48:48.142Z,15.83
2022-09-15T04:51:18.460Z,15.84
2022-09-15T04:53:45.690Z,15.85
2022-09-15T04:56:15.767Z,15.86
2022-09-15T04:58:45.194Z,15.82
2022-09-15T05:01:17.987Z,15.80
2022-09-15T05:03:46.364Z,15.79
2022-09-15T05:06:15.994Z,15.76
2022-09-15T05:08:43.024Z,15.75
2022-09-15T05:11:12.315Z,15.77
2022-09-15T05:13:40.653Z,15.75
2022-09-15T05:16:09.030Z,15.73
2022-09-15T05:18:35.944Z,15.65
2022-09-15T05:21:04.371Z,15.67
2022-09-15T05:23:32.044Z,15.66
2022-09-15T05:26:00.489Z,15.66
2022-09-15T05:28:27.434Z,15.69
2022-09-15T05:30:55.833Z,15.69
2022-09-15T05:33:23.575Z,15.70
2022-09-15T05:35:56.284Z,15.71
2022-09-15T05:38:23.827Z,15.69
2022-09-15T05:40:50.655Z,15.64
2022-09-15T05:43:18.621Z,15.64
2022-09-15T05:45:54.478Z,15.64
2022-09-15T05:48:21.136Z,15.63
2022-09-15T05:50:52.564Z,15.63
2022-09-15T05:53:20.700Z,15.67
2022-09-15T05:55:47.581Z,15.65
2022-09-15T05:58:15.018Z,15.63
2022-09-15T06:00:42.549Z,15.62
2022-09-15T06:03:15.160Z,15.59
2022-09-15T06:05:42.690Z,15.55
2022-09-15T06:08:09.685Z,15.54
2022-09-15T06:10:36.785Z,15.53
2022-09-15T06:13:03.505Z,15.56
2022-09-15T06:15:31.482Z,15.57
2022-09-15T06:17:58.255Z,15.58
2022-09-15T06:20:25.659Z,15.58
2022-09-15T06:22:53.461Z,15.59
2022-09-15T06:25:20.190Z,15.52
2022-09-15T06:27:49.675Z,15.52
2022-09-15T06:30:17.916Z,15.58
2022-09-15T06:32:48.125Z,15.66
2022-09-15T06:35:15.557Z,15.72
2022-09-15T06:37:42.232Z,15.77
2022-09-15T06:40:09.382Z,15.78
2022-09-15T06:42:36.080Z,15.83
2022-09-15T06:45:05.685Z,15.88
2022-09-15T06:47:34.096Z,15.91
2022-09-15T06:50:01.313Z,15.92
2022-09-15T06:52:28.067Z,15.94
2022-09-15T06:54:54.804Z,15.93
2022-09-15T06:57:21.444Z,15.92
2022-09-15T06:59:48.067Z,15.94
2022-09-15T07:02:14.813Z,15.93
2022-09-15T07:04:41.551Z,15.92
2022-09-15T07:07:08.212Z,15.90
2022-09-15T07:09:34.889Z,15.79
2022-09-15T07:12:01.891Z,15.71
2022-09-15T07:14:28.617Z,15.68
2022-09-15T07:16:55.326Z,15.63
2022-09-15T07:19:21.960Z,15.57
2022-09-15T07:21:48.599Z,15.56
2022-09-15T07:24:15.455Z,15.56
2022-09-15T07:26:42.298Z,15.57
2022-09-15T07:29:09.781Z,15.59
2022-09-15T07:31:38.359Z,15.57
2022-09-15T07:34:06.083Z,15.57
2022-09-15T07:36:33.065Z,15.56
2022-09-15T07:38:59.742Z,15.57
2022-09-15T07:41:28.902Z,15.56
2022-09-15T07:43:57.790Z,15.58
2022-09-15T07:46:26.373Z,15.61
2022-09-15T07:48:57.685Z,15.63
2022-09-15T07:51:25.792Z,15.66
2022-09-15T07:53:53.688Z,15.66
2022-09-15T07:56:21.585Z,15.75
2022-09-15T07:58:48.976Z,15.75
2022-09-15T08:01:16.852Z,15.75
2022-09-15T08:03:46.298Z,15.80
2022-09-15T08:06:13.621Z,15.80
2022-09-15T08:08:40.879Z,15.79
2022-09-15T08:11:09.186Z,15.73
2022-09-15T08:13:36.299Z,15.71
2022-09-15T08:16:11.602Z,15.72
2022-09-15T08:18:40.037Z,15.71
2022-09-15T08:21:09.502Z,15.77
2022-09-15T08:23:37.123Z,15.79
2022-09-15T08:26:13.087Z,15.82
2022-09-15T08:28:40.736Z,15.88
2022-09-15T08:31:09.160Z,15.94
2022-09-15T08:33:36.072Z,16.01
2022-09-15T08:36:13.375Z,16.10
2022-09-15T08:38:41.628Z,16.20
2022-09-15T08:41:14.087Z,16.30
2022-09-15T08:44:00.922Z,16.39
2022-09-15T08:46:35.134Z,16.40
2022-09-15T08:49:47.485Z,16.44
2022-09-15T08:52:31.252Z,16.46
2022-09-15T08:55:01.234Z,16.46
2022-09-15T08:57:28.100Z,16.38
2022-09-15T08:59:55.009Z,16.34
2022-09-15T09:02:35.666Z,16.31
2022-09-15T09:05:25.106Z,16.31
2022-09-15T09:08:04.160Z,16.37
2022-09-15T09:10:52.482Z,16.41
2022-09-15T09:14:04.192Z,16.42
2022-09-15T09:17:00.916Z,16.36
2022-09-15T09:20:09.049Z,16.35
2022-09-15T09:22:40.613Z,16.37
2022-09-15T09:25:26.684Z,16.34
2022-09-15T09:27:56.475Z,16.22
2022-09-15T09:30:25.195Z,16.14
2022-09-15T09:33:22.961Z,16.04
2022-09-15T09:35:53.812Z,15.98
2022-09-15T09:38:21.792Z,15.82
2022-09-15T09:40:49.816Z,15.80
2022-09-15T09:43:16.840Z,15.84
2022-09-15T09:45:43.895Z,15.90
2022-09-15T09:48:20.379Z,15.89
2022-09-15T09:50:47.450Z,15.92
2022-09-15T09:53:27.857Z,15.95
2022-09-15T09:56:14.730Z,15.94
2022-09-15T09:58:41.905Z,15.92
2022-09-15T10:01:20.131Z,15.90
2022-09-15T10:03:46.898Z,15.92
2022-09-15T10:06:20.665Z,15.93
2022-09-15T10:08:53.132Z,15.90
2022-09-15T10:11:19.841Z,15.91
2022-09-15T10:13:55.497Z,15.91
2022-09-15T10:16:22.998Z,15.89
2022-09-15T10:18:54.150Z,15.92
2022-09-15T10:21:24.930Z,15.93
2022-09-15T10:23:51.997Z,15.95
2022-09-15T10:26:34.322Z,16.00
2022-09-15T10:29:18.081Z,16.02
2022-09-15T10:31:46.148Z,16.05
2022-09-15T10:34:26.545Z,16.02
2022-09-15T10:36:59.032Z,15.98
2022-09-15T10:39:43.782Z,15.92
2022-09-15T10:42:25.405Z,15.81
2022-09-15T10:45:08.815Z,15.80
2022-09-15T10:47:48.599Z,15.79
2022-09-15T10:50:34.601Z,15.71
2022-09-15T10:53:06.959Z,15.69
2022-09-15T10:56:07.566Z,15.74
2022-09-15T10:59:03.426Z,15.75
2022-09-15T11:01:30.242Z,15.75
2022-09-15T11:04:20.200Z,15.86
2022-09-15T11:07:30.720Z,16.10
2022-09-15T11:10:46.440Z,16.30
2022-09-15T11:13:31.590Z,16.47
2022-09-15T11:16:26.059Z,16.62
2022-09-15T11:19:10.255Z,16.68
2022-09-15T11:21:43.212Z,16.69
2022-09-15T11:24:25.871Z,16.80
2022-09-15T11:27:03.773Z,16.92
2022-09-15T11:29:55.040Z,16.92
2022-09-15T11:32:28.164Z,17.03
2022-09-15T11:35:26.558Z,17.03
2022-09-15T11:37:56.986Z,16.98
2022-09-15T11:40:26.428Z,16.91
2022-09-15T11:42:59.932Z,16.91
2022-09-15T11:45:30.455Z,17.00
2022-09-15T11:48:18.689Z,16.97
2022-09-15T11:50:49.163Z,16.96
2022-09-15T11:53:33.733Z,16.84
2022-09-15T11:56:00.315Z,16.75
2022-09-15T11:58:30.078Z,16.64
2022-09-15T12:01:14.413Z,16.69
2022-09-15T12:03:59.624Z,16.78
2022-09-15T12:06:51.826Z,16.78
2022-09-15T12:09:21.042Z,16.78
2022-09-15T12:11:51.628Z,16.82
2022-09-15T12:14:42.179Z,16.90
2022-09-15T12:17:18.922Z,16.94
2022-09-15T12:20:13.014Z,16.81
2022-09-15T12:22:59.930Z,16.76
2022-09-15T12:25:47.968Z,16.85
2022-09-15T12:28:24.070Z,16.84
2022-09-15T12:31:12.533Z,16.85
2022-09-15T12:33:42.348Z,16.88
2022-09-15T12:36:41.634Z,16.94
2022-09-15T12:39:27.656Z,17.08
2022-09-15T12:42:07.071Z,17.27
2022-09-15T12:44:47.736Z,17.33
2022-09-15T12:47:23.194Z,17.34
2022-09-15T12:49:51.504Z,17.37
2022-09-15T12:52:21.643Z,17.40
2022-09-15T12:55:01.613Z,17.25
2022-09-15T12:57:36.564Z,17.20
2022-09-15T13:00:29.665Z,17.27
2022-09-15T13:02:57.426Z,17.41
2022-09-15T13:05:42.185Z,17.39
2022-09-15T13:08:38.307Z,17.35
2022-09-15T13:11:04.915Z,17.39
2022-09-15T13:13:40.826Z,17.36
2022-09-15T13:16:14.977Z,17.30
2022-09-15T13:18:44.356Z,17.26
2022-09-15T13:21:17.549Z,17.30
2022-09-15T13:23:48.349Z,17.31
2022-09-15T13:26:17.794Z,17.31
2022-09-15T13:28:48.670Z,17.29
2022-09-15T13:31:50.987Z,17.31
2022-09-15T13:35:06.216Z,17.25
2022-09-15T13:40:38.171Z,17.25
2022-09-15T13:43:22.952Z,17.18
2022-09-15T13:46:08.483Z,17.12
2022-09-15T13:48:48.373Z,17.03
2022-09-15T13:51:26.833Z,17.02
2022-09-15T13:54:07.945Z,17.07
2022-09-15T13:56:41.485Z,16.93
2022-09-15T13:59:18.133Z,16.85
2022-09-15T14:01:45.668Z,16.78
2022-09-15T14:04:14.871Z,16.68
2022-09-15T14:06:45.707Z,16.57
2022-09-15T14:09:12.333Z,16.59
2022-09-15T14:11:40.725Z,16.65
2022-09-15T14:14:28.512Z,16.76
2022-09-15T14:16:56.871Z,16.77
2022-09-15T14:19:38.236Z,16.76
2022-09-15T14:22:20.199Z,16.62
2022-09-15T14:24:47.464Z,16.51
2022-09-15T14:27:22.052Z,16.52
2022-09-15T14:29:51.270Z,16.55
2022-09-15T14:32:18.307Z,16.60
2022-09-15T14:34:45.658Z,16.65
2022-09-15T14:37:27.669Z,16.62
2022-09-15T14:39:59.625Z,16.58
2022-09-15T14:42:40.460Z,16.58
2022-09-15T14:48:01.839Z,16.54
2022-09-15T14:50:33.254Z,16.49
2022-09-15T14:53:05.529Z,16.42
2022-09-15T14:55:35.591Z,16.36
2022-09-15T14:58:07.485Z,16.28
2022-09-15T15:00:55.702Z,16.22
2022-09-15T15:03:34.299Z,16.23
2022-09-15T15:06:31.042Z,16.23
2022-09-15T15:09:09.091Z,16.17
2022-09-15T15:11:38.949Z,16.10
2022-09-15T15:14:08.297Z,16.07
2022-09-15T15:16:35.192Z,16.00
2022-09-15T15:19:01.906Z,15.93
2022-09-15T15:21:40.939Z,15.90
2022-09-15T15:24:13.473Z,15.85
2022-09-15T15:26:42.339Z,15.89
2022-09-15T15:29:54.958Z,15.89
2022-09-15T15:32:25.100Z,15.82
2022-09-15T15:35:00.275Z,15.79
2022-09-15T15:37:34.675Z,15.70
2022-09-15T15:40:05.226Z,15.64
2022-09-15T15:42:31.993Z,15.69
2022-09-15T15:45:23.262Z,15.75
2022-09-15T15:47:50.083Z,15.74
2022-09-15T15:50:17.520Z,15.71
2022-09-15T15:52:45.039Z,15.70
2022-09-15T15:55:16.725Z,15.65
2022-09-15T15:57:44.263Z,15.54
2022-09-15T16:00:21.614Z,15.46
2022-09-15T16:02:49.344Z,15.46
2022-09-15T16:05:16.327Z,15.51
2022-09-15T16:07:45.995Z,15.45
2022-09-15T16:10:18.548Z,15.36
2022-09-15T16:12:45.278Z,15.31
2022-09-15T16:15:19.150Z,15.33
2022-09-15T16:17:47.130Z,15.33
2022-09-15T16:20:17.099Z,15.37
2022-09-15T16:22:43.883Z,15.37
2022-09-15T16:25:18.304Z,15.33
2022-09-15T16:27:45.050Z,15.30
2022-09-15T16:30:12.359Z,15.28
2022-09-15T16:32:40.779Z,15.26
2022-09-15T16:35:24.500Z,15.21
2022-09-15T16:37:51.218Z,15.20
2022-09-15T16:40:18.104Z,15.17
2022-09-15T16:42:45.215Z,15.14
2022-09-15T16:45:21.793Z,15.11
2022-09-15T16:47:49.056Z,15.07
2022-09-15T16:50:15.752Z,14.98
2022-09-15T16:52:43.036Z,14.96
2022-09-15T16:55:19.379Z,14.92
2022-09-15T16:57:46.063Z,14.93
2022-09-15T17:00:13.460Z,14.92
2022-09-15T17:02:40.100Z,14.92
2022-09-15T17:05:20.193Z,14.89
2022-09-15T17:07:46.985Z,14.88
2022-09-15T17:10:13.862Z,14.87
2022-09-15T17:12:40.701Z,14.89
2022-09-15T17:15:34.182Z,14.74
2022-09-15T17:18:01.843Z,14.76
2022-09-15T17:20:29.350Z,14.78
2022-09-15T17:22:57.399Z,14.69
2022-09-15T17:25:26.551Z,14.65
2022-09-15T17:27:53.728Z,14.59
2022-09-15T17:30:22.354Z,14.56
2022-09-15T17:32:49.860Z,14.53
2022-09-15T17:35:24.959Z,14.49
2022-09-15T17:37:52.309Z,14.39
2022-09-15T17:40:21.105Z,14.34
2022-09-15T17:42:48.745Z,14.30
2022-09-15T17:45:17.729Z,14.23
2022-09-15T17:47:44.700Z,14.19
2022-09-15T17:50:12.090Z,14.16
2022-09-15T17:52:39.037Z,14.17
2022-09-15T17:55:12.606Z,14.14
2022-09-15T17:57:39.265Z,14.03
2022-09-15T18:00:06.607Z,13.94
2022-09-15T18:02:33.344Z,13.94
2022-09-15T18:05:00.302Z,13.94
2022-09-15T18:07:27.067Z,13.92
2022-09-15T18:09:55.010Z,13.96
2022-09-15T18:12:23.372Z,13.96
2022-09-15T18:14:50.203Z,13.91
2022-09-15T18:17:17.261Z,13.88
2022-09-15T18:19:44.119Z,13.82
2022-09-15T18:22:13.218Z,13.78
2022-09-15T18:24:39.840Z,13.72
2022-09-15T18:27:06.474Z,13.70
2022-09-15T18:29:33.597Z,13.66
2022-09-15T18:32:03.094Z,13.64
2022-09-15T18:34:30.029Z,13.69
2022-09-15T18:36:58.517Z,13.67
2022-09-15T18:39:25.927Z,13.62
2022-09-15T18:41:54.091Z,13.60
2022-09-15T18:44:20.801Z,13.59
2022-09-15T18:46:47.493Z,13.56
2022-09-15T18:49:14.273Z,13.52
2022-09-15T18:51:51.500Z,13.50
2022-09-15T18:54:18.412Z,13.49
2022-09-15T18:56:45.067Z,13.47
2022-09-15T18:59:13.680Z,13.44
2022-09-15T19:01:42.272Z,13.45
2022-09-15T19:04:08.935Z,13.47
2022-09-15T19:06:35.779Z,13.49
2022-09-15T19:09:02.518Z,13.49
2022-09-15T19:11:29.601Z,13.50
2022-09-15T19:13:56.219Z,13.48
2022-09-15T19:16:34.706Z,13.42
2022-09-15T19:19:09.972Z,13.40
2022-09-15T19:21:36.762Z,13.38
2022-09-15T19:24:03.538Z,13.36
2022-09-15T19:26:30.358Z,13.39
2022-09-15T19:28:58.041Z,13.39
2022-09-15T19:31:25.884Z,13.40
2022-09-15T19:33:52.767Z,13.43
2022-09-15T19:36:29.527Z,13.43
2022-09-15T19:38:57.658Z,13.40
2022-09-15T19:41:24.459Z,13.41
2022-09-15T19:43:51.145Z,13.41
2022-09-15T19:46:24.327Z,13.40
2022-09-15T19:48:52.132Z,13.41
2022-09-15T19:51:19.843Z,13.40
2022-09-15T19:53:47.328Z,13.44
2022-09-15T19:56:16.438Z,13.48
2022-09-15T19:58:43.993Z,13.50
2022-09-15T20:01:11.300Z,13.52
2022-09-15T20:03:38.237Z,13.53
2022-09-15T20:06:07.835Z,13.55
2022-09-15T20:08:35.797Z,13.51
2022-09-15T20:11:06.700Z,13.52
2022-09-15T20:13:33.715Z,13.47
2022-09-15T20:16:03.933Z,13.42
2022-09-15T20:18:36.688Z,13.34
2022-09-15T20:21:07.385Z,13.32
2022-09-15T20:23:34.551Z,13.32
2022-09-15T20:26:04.362Z,13.33
2022-09-15T20:28:31.067Z,13.32
2022-09-15T20:31:07.310Z,13.33
2022-09-15T20:33:36.158Z,13.29
2022-09-15T20:36:06.438Z,13.24
2022-09-15T20:38:34.561Z,13.26
2022-09-15T20:41:01.908Z,13.25
2022-09-15T20:43:29.097Z,13.28
2022-09-15T20:46:05.086Z,13.26
2022-09-15T20:48:33.077Z,13.26
2022-09-15T20:51:17.096Z,13.24
2022-09-15T20:53:46.677Z,13.18
2022-09-15T20:56:15.296Z,13.13
2022-09-15T20:58:42.571Z,13.10
2022-09-15T21:01:11.645Z,13.10
2022-09-15T21:03:40.285Z,13.06
2022-09-15T21:06:15.759Z,13.04
2022-09-15T21:08:47.894Z,13.04
2022-09-15T21:11:15.961Z,13.06
2022-09-15T21:13:43.752Z,13.04
2022-09-15T21:16:14.735Z,13.02
2022-09-15T21:18:42.292Z,13.02
2022-09-15T21:21:11.901Z,12.97
2022-09-15T21:23:41.373Z,13.02
2022-09-15T21:26:11.046Z,13.06
2022-09-15T21:28:38.652Z,13.04
2022-09-15T21:31:08.999Z,13.04
2022-09-15T21:33:36.676Z,13.08
2022-09-15T21:36:09.732Z,13.14
2022-09-15T21:38:38.073Z,13.19
2022-09-15T21:41:09.324Z,13.26
2022-09-15T21:43:39.331Z,13.26
2022-09-15T21:46:08.584Z,13.18
2022-09-15T21:48:35.906Z,13.10
2022-09-15T21:51:04.701Z,13.11
2022-09-15T21:53:32.471Z,13.11
2022-09-15T21:56:03.607Z,13.16
2022-09-15T21:58:38.952Z,13.15
2022-09-15T22:01:19.931Z,13.16
2022-09-15T22:03:54.043Z,13.12
2022-09-15T22:06:23.449Z,13.06
2022-09-15T22:08:50.101Z,12.97
2022-09-15T22:11:16.796Z,12.96
2022-09-15T22:13:44.665Z,12.95
2022-09-15T22:16:17.933Z,12.92
2022-09-15T22:18:45.077Z,12.91
2022-09-15T22:21:23.905Z,12.99
2022-09-15T22:23:53.345Z,13.04
2022-09-15T22:26:23.444Z,13.00
2022-09-15T22:28:50.147Z,12.97
2022-09-15T22:31:19.365Z,12.99
2022-09-15T22:33:46.743Z,12.93
2022-09-15T22:36:16.238Z,12.91
2022-09-15T22:38:43.873Z,12.98
2022-09-15T22:41:13.521Z,13.05
2022-09-15T22:43:41.532Z,13.09
2022-09-15T22:46:08.654Z,13.02
2022-09-15T22:48:39.642Z,13.05
2022-09-15T22:51:09.523Z,13.09
2022-09-15T22:53:36.198Z,13.12
2022-09-15T22:56:08.799Z,13.08
2022-09-15T22:58:36.723Z,13.09
2022-09-15T23:01:09.771Z,13.14
2022-09-15T23:03:37.279Z,13.14
2022-09-15T23:06:05.631Z,13.16
2022-09-15T23:08:32.995Z,13.12
2022-09-15T23:11:06.968Z,13.08
2022-09-15T23:13:34.182Z,13.04
2022-09-15T23:16:01.126Z,12.98
2022-09-15T23:18:28.046Z,12.99
2022-09-15T23:21:07.422Z,13.00
2022-09-15T23:23:35.799Z,12.99
2022-09-15T23:26:03.497Z,12.97
2022-09-15T23:28:30.947Z,12.95
2022-09-15T23:30:59.023Z,12.98
2022-09-15T23:33:27.251Z,12.97
2022-09-15T23:35:54.342Z,12.95
2022-09-15T23:38:21.956Z,12.93
2022-09-15T23:40:50.239Z,12.95
2022-09-15T23:43:17.750Z,12.89
2022-09-15T23:45:45.474Z,12.87
2022-09-15T23:48:14.143Z,12.85
2022-09-15T23:50:41.628Z,12.82
2022-09-15T23:53:09.003Z,12.83
2022-09-15T23:55:36.216Z,12.84
2022-09-15T23:58:04.095Z,12.83
